Time;durP1;ratioP1;P1;durP2;ratioP2;P2;SDS_P1;SDS_P2;PMS_P1;PMS_P2;Temp;Humidity;BMP_temperature;BMP_pressure;BME280_temperature;BME280_humidity;BME280_pressure;Samples;Min_cycle;Max_cycle;Signal;HPM_P1;HPM_P2
2023/09/13 00:02:24;;;;;;;6.82;3.38;;;;;;;13.31;89.84;93335.84;5067048;28;20094;-78
2023/09/13 00:04:54;;;;;;;5.05;3.03;;;;;;;13.33;89.95;93337.19;5072961;28;20052;-78
2023/09/13 00:07:21;;;;;;;6.65;3.40;;;;;;;12.76;90.59;93262.91;5066762;28;20056;-78
2023/09/13 00:09:48;;;;;;;6.18;2.90;;;;;;;13.23;91.82;93337.75;5067064;28;20131;-78
2023/09/13 00:12:14;;;;;;;5.53;3.35;;;;;;;13.21;91.84;93339.78;5068860;28;20044;-78
2023/09/13 00:14:41;;;;;;;8.38;3.70;;;;;;;13.23;91.45;93345.50;5066244;28;20044;-78
2023/09/13 00:17:08;;;;;;;5.53;3.40;;;;;;;13.28;91.37;93344.06;5068947;28;20044;-78
2023/09/13 00:19:37;;;;;;;5.85;3.55;;;;;;;13.20;92.09;93337.41;5067263;28;20068;-77
2023/09/13 00:22:06;;;;;;;6.80;3.22;;;;;;;13.20;92.09;93342.59;5067200;28;20059;-77
2023/09/13 00:24:32;;;;;;;7.75;4.90;;;;;;;13.18;92.67;93347.97;5069181;28;20447;-77
2023/09/13 00:26:59;;;;;;;4.10;3.40;;;;;;;13.13;92.95;93341.88;5075801;28;20044;-77
2023/09/13 00:29:26;;;;;;;6.15;3.58;;;;;;;13.10;93.36;93354.22;5066871;28;20837;-77
2023/09/13 00:31:52;;;;;;;5.07;3.35;;;;;;;13.06;93.31;93352.31;5067225;28;20052;-77
2023/09/13 00:34:19;;;;;;;4.18;2.70;;;;;;;13.00;93.50;93346.22;5066749;28;20049;-77
2023/09/13 00:36:46;;;;;;;4.70;3.53;;;;;;;13.01;94.13;93354.75;5067023;28;20058;-76
2023/09/13 00:39:14;;;;;;;6.35;3.40;;;;;;;13.03;93.75;93352.75;5066684;28;20494;-76
2023/09/13 00:41:41;;;;;;;6.88;3.58;;;;;;;12.97;93.86;93349.25;5074259;28;20717;-76
2023/09/13 00:44:07;;;;;;;5.65;3.60;;;;;;;12.94;94.26;93358.22;5068923;28;20044;-76
2023/09/13 00:46:36;;;;;;;6.15;3.45;;;;;;;12.90;94.37;93348.56;5070350;28;20926;-76
2023/09/13 00:49:03;;;;;;;6.07;3.75;;;;;;;12.84;94.67;93345.09;5067219;28;20114;-76
2023/09/13 00:51:30;;;;;;;5.88;3.33;;;;;;;12.89;95.12;93357.31;5068688;28;20052;-76
2023/09/13 00:53:58;;;;;;;5.38;3.20;;;;;;;12.85;95.35;93363.91;5066502;28;20052;-76
2023/09/13 00:56:26;;;;;;;6.32;3.80;;;;;;;12.80;95.56;93352.47;5066424;28;20040;-76
2023/09/13 00:58:53;;;;;;;6.65;3.60;;;;;;;12.75;96.16;93352.34;5075234;28;20457;-76
2023/09/13 01:01:20;;;;;;;4.75;3.90;;;;;;;12.77;96.27;93359.84;5066597;28;20552;-76
2023/09/13 01:03:47;;;;;;;5.43;3.53;;;;;;;12.81;95.30;93360.97;5068433;28;20082;-76
2023/09/13 01:06:15;;;;;;;4.90;3.90;;;;;;;12.82;95.11;93358.19;5066643;28;20045;-76
2023/09/13 01:08:43;;;;;;;7.18;3.92;;;;;;;12.78;96.17;93371.75;5067934;28;20440;-76
2023/09/13 01:11:10;;;;;;;8.88;4.72;;;;;;;12.81;95.07;93366.13;5069931;28;20059;-76
2023/09/13 01:13:39;;;;;;;7.82;3.75;;;;;;;12.79;95.13;93368.16;5066497;28;20127;-76
2023/09/13 01:16:14;;;;;;;4.22;3.08;;;;;;;12.77;94.37;93362.44;5070656;28;20075;-76
2023/09/13 01:18:51;;;;;;;4.50;3.47;;;;;;;12.67;95.01;93352.63;5075175;28;20530;-76
2023/09/13 01:21:36;;;;;;;6.72;3.78;;;;;;;12.67;95.76;93357.78;5072020;28;20118;-76
2023/09/13 01:24:40;;;;;;;5.70;3.83;;;;;;;12.66;96.17;93356.22;5070738;28;20072;-77
2023/09/13 01:27:38;;;;;;;4.03;3.20;;;;;;;12.58;96.41;93352.16;5073011;28;20471;-77
2023/09/13 01:30:09;;;;;;;7.10;3.83;;;;;;;12.51;96.75;93359.19;5068852;28;20080;-77
2023/09/13 01:32:36;;;;;;;5.70;3.63;;;;;;;12.48;96.03;93362.97;5074306;28;20101;-77
2023/09/13 01:35:03;;;;;;;6.65;3.50;;;;;;;12.45;95.29;93367.78;5076334;28;20049;-77
2023/09/13 01:37:31;;;;;;;7.18;3.60;;;;;;;12.34;94.74;93357.22;5075881;28;20140;-77
2023/09/13 01:39:58;;;;;;;6.45;2.65;;;;;;;12.29;94.46;93346.75;5070128;28;20207;-77
2023/09/13 01:42:25;;;;;;;5.22;3.28;;;;;;;12.33;94.49;93353.06;5074316;28;20749;-77
2023/09/13 01:44:53;;;;;;;5.95;3.63;;;;;;;12.26;94.98;93347.19;5068902;28;20659;-75
2023/09/13 01:47:22;;;;;;;4.95;2.88;;;;;;;12.25;94.78;93345.63;5074465;28;20094;-76
2023/09/13 01:49:50;;;;;;;5.28;3.20;;;;;;;12.29;94.60;93351.91;5074761;28;20036;-76
2023/09/13 01:52:16;;;;;;;4.53;2.97;;;;;;;12.19;95.05;93361.94;5074316;28;20048;-76
2023/09/13 01:54:43;;;;;;;4.85;3.13;;;;;;;12.18;95.35;93353.44;5073797;28;20332;-75
2023/09/13 01:57:10;;;;;;;4.28;3.28;;;;;;;11.96;94.92;93320.38;5074741;28;20406;-77
2023/09/13 01:59:37;;;;;;;6.60;3.28;;;;;;;12.11;95.75;93353.50;5073878;28;20051;-77
2023/09/13 02:02:03;;;;;;;8.02;2.92;;;;;;;12.08;95.34;93346.19;5075750;28;20044;-76
2023/09/13 02:04:33;;;;;;;5.90;3.50;;;;;;;12.13;95.29;93354.06;5077480;28;20180;-77
2023/09/13 02:07:00;;;;;;;4.55;2.75;;;;;;;12.09;95.78;93349.56;5077595;28;20048;-76
2023/09/13 02:09:27;;;;;;;4.68;3.17;;;;;;;12.16;95.68;93352.84;5078381;28;20046;-76
2023/09/13 02:11:53;;;;;;;4.90;3.10;;;;;;;12.18;95.62;93348.28;5075439;28;20444;-76
2023/09/13 02:14:20;;;;;;;4.65;3.20;;;;;;;12.22;95.32;93358.94;5076914;28;20047;-76
2023/09/13 02:16:47;;;;;;;4.40;3.17;;;;;;;12.18;96.09;93353.44;5078424;28;20507;-76
2023/09/13 02:19:14;;;;;;;6.80;3.83;;;;;;;12.14;96.03;93347.91;5080417;28;20080;-77
2023/09/13 02:21:42;;;;;;;5.28;3.28;;;;;;;12.15;96.13;93352.09;5071690;28;20063;-76
2023/09/13 02:24:09;;;;;;;4.40;3.38;;;;;;;12.11;96.01;93355.28;5078987;28;20036;-77
2023/09/13 02:26:36;;;;;;;5.10;2.97;;;;;;;12.05;96.02;93344.06;5076163;28;20063;-78
2023/09/13 02:29:03;;;;;;;3.80;2.60;;;;;;;12.00;96.09;93347.25;5077081;28;20044;-78
2023/09/13 02:31:30;;;;;;;5.57;3.03;;;;;;;11.95;96.50;93356.63;5076985;28;20078;-78
2023/09/13 02:33:57;;;;;;;6.10;3.35;;;;;;;11.68;97.00;93324.22;5075589;28;20043;-79
2023/09/13 02:36:24;;;;;;;4.82;3.15;;;;;;;11.85;97.50;93351.97;5078684;28;20048;-76
2023/09/13 02:38:53;;;;;;;5.68;3.47;;;;;;;11.70;97.67;93342.81;5077999;28;20784;-77
2023/09/13 02:41:20;;;;;;;5.07;3.13;;;;;;;11.80;97.91;93356.97;5076172;28;20105;-77
2023/09/13 02:43:46;;;;;;;7.47;3.70;;;;;;;11.77;98.34;93353.81;5074525;28;20045;-77
2023/09/13 02:46:13;;;;;;;7.70;3.90;;;;;;;11.81;98.46;93351.59;5078707;28;20062;-77
2023/09/13 02:48:40;;;;;;;5.15;3.78;;;;;;;11.71;98.40;93343.59;5071089;28;20041;-77
2023/09/13 02:51:12;;;;;;;5.63;3.50;;;;;;;11.79;98.65;93363.13;5076716;28;21064;-77
2023/09/13 02:53:39;;;;;;;6.80;3.63;;;;;;;11.72;97.68;93361.38;5071441;28;20398;-77
2023/09/13 02:56:08;;;;;;;6.28;3.70;;;;;;;11.69;97.38;93355.88;5068048;28;20044;-77
2023/09/13 02:58:34;;;;;;;7.20;3.85;;;;;;;11.68;97.65;93367.97;5067887;28;20052;-77
2023/09/13 03:01:03;;;;;;;6.03;4.03;;;;;;;11.60;97.53;93368.22;5069842;28;20041;-77
2023/09/13 03:03:33;;;;;;;5.97;3.40;;;;;;;11.53;97.50;93365.72;5080930;28;20555;-77
2023/09/13 03:06:10;;;;;;;5.93;3.50;;;;;;;11.52;98.14;93371.84;5068162;28;20444;-77
2023/09/13 03:08:36;;;;;;;7.18;3.70;;;;;;;11.50;98.64;93371.28;5073655;28;20498;-77
2023/09/13 03:11:15;;;;;;;5.03;3.35;;;;;;;11.45;98.99;93377.06;5067866;28;20132;-77
2023/09/13 03:13:42;;;;;;;7.03;3.75;;;;;;;11.38;98.66;93381.47;5067525;28;20052;-77
2023/09/13 03:16:16;;;;;;;9.48;4.22;;;;;;;11.34;99.57;93377.75;5067774;28;20114;-77
2023/09/13 03:18:43;;;;;;;6.53;3.55;;;;;;;11.31;99.75;93378.97;5067948;28;20489;-76
2023/09/13 03:21:10;;;;;;;7.50;3.78;;;;;;;11.23;100.00;93385.16;5070156;28;20097;-76
2023/09/13 03:23:38;;;;;;;7.85;3.63;;;;;;;11.19;100.00;93383.19;5067274;28;20090;-76
2023/09/13 03:26:14;;;;;;;5.85;3.72;;;;;;;11.11;100.00;93365.47;5067567;28;20109;-76
2023/09/13 03:28:40;;;;;;;7.85;3.60;;;;;;;11.23;100.00;93385.16;5086291;28;20121;-76
2023/09/13 03:31:11;;;;;;;6.32;3.58;;;;;;;11.17;100.00;93385.19;5076960;28;20041;-76
2023/09/13 03:33:39;;;;;;;6.60;3.75;;;;;;;11.12;100.00;93382.44;5075011;28;20060;-76
2023/09/13 03:36:06;;;;;;;6.68;3.97;;;;;;;11.15;100.00;93379.47;5073884;28;20048;-76
2023/09/13 03:38:33;;;;;;;5.03;3.42;;;;;;;11.17;100.00;93374.91;5069298;28;20051;-76
2023/09/13 03:41:01;;;;;;;9.05;4.07;;;;;;;11.17;100.00;93375.72;5080120;28;20079;-76
2023/09/13 03:43:29;;;;;;;7.10;4.28;;;;;;;11.08;100.00;93356.38;5077644;28;20113;-76
2023/09/13 03:45:56;;;;;;;9.15;3.80;;;;;;;11.07;100.00;93355.56;5076871;28;20455;-76
2023/09/13 03:48:23;;;;;;;5.60;3.45;;;;;;;11.21;100.00;93373.50;5067625;28;21319;-76
2023/09/13 03:50:50;;;;;;;8.05;4.15;;;;;;;11.19;100.00;93370.34;5075281;28;20097;-77
2023/09/13 03:53:17;;;;;;;7.55;4.07;;;;;;;11.17;100.00;93373.13;5078237;28;20052;-77
2023/09/13 03:55:44;;;;;;;9.90;3.83;;;;;;;11.08;100.00;93364.84;5078100;28;20048;-76
2023/09/13 03:58:11;;;;;;;12.63;4.15;;;;;;;11.13;99.92;93369.41;5068795;28;20048;-76
2023/09/13 04:00:39;;;;;;;7.85;4.00;;;;;;;11.11;100.00;93378.31;5076474;28;20056;-77
2023/09/13 04:03:06;;;;;;;8.77;4.45;;;;;;;11.10;100.00;93372.38;5078302;28;20048;-76
2023/09/13 04:05:33;;;;;;;9.27;4.22;;;;;;;11.04;100.00;93371.44;5077551;28;20456;-76
2023/09/13 04:08:00;;;;;;;9.77;3.97;;;;;;;10.97;100.00;93373.25;5079399;28;20093;-76
2023/09/13 04:10:26;;;;;;;8.38;4.70;;;;;;;10.96;100.00;93372.47;5073801;28;20084;-76
2023/09/13 04:12:53;;;;;;;9.27;4.70;;;;;;;10.98;100.00;93369.69;5076893;28;20109;-77
2023/09/13 04:15:20;;;;;;;10.70;4.55;;;;;;;11.01;100.00;93374.41;5078288;28;20081;-77
2023/09/13 04:17:48;;;;;;;8.05;3.92;;;;;;;10.93;100.00;93361.81;5078727;28;20041;-76
2023/09/13 04:20:15;;;;;;;11.93;5.03;;;;;;;10.80;100.00;93342.13;5072909;28;20089;-76
2023/09/13 04:22:41;;;;;;;8.95;4.45;;;;;;;11.08;100.00;93376.94;5076635;28;20045;-77
2023/09/13 04:25:10;;;;;;;9.50;4.43;;;;;;;10.96;100.00;93358.81;5079205;28;20048;-77
2023/09/13 04:27:37;;;;;;;9.18;4.70;;;;;;;11.03;100.00;93371.63;5076615;28;20307;-77
2023/09/13 04:30:04;;;;;;;9.20;4.10;;;;;;;11.11;100.00;93376.50;5073812;28;20045;-76
2023/09/13 04:32:31;;;;;;;10.95;5.00;;;;;;;11.11;100.00;93379.09;5075766;28;20567;-77
2023/09/13 04:35:00;;;;;;;14.52;5.30;;;;;;;11.13;100.00;93373.75;5076443;28;20044;-77
2023/09/13 04:37:27;;;;;;;11.48;4.80;;;;;;;11.12;100.00;93375.53;5072206;28;20048;-77
2023/09/13 04:39:54;;;;;;;11.65;4.80;;;;;;;11.15;100.00;93382.06;5075029;28;20045;-76
2023/09/13 04:42:20;;;;;;;14.05;5.30;;;;;;;11.08;100.00;93371.81;5076629;28;20044;-77
2023/09/13 04:44:47;;;;;;;12.38;4.70;;;;;;;11.18;100.00;93385.00;5078436;28;20484;-77
2023/09/13 04:47:14;;;;;;;13.73;5.10;;;;;;;11.16;100.00;93371.53;5074931;28;20044;-77
2023/09/13 04:49:40;;;;;;;16.00;5.63;;;;;;;11.27;100.00;93387.28;5076707;28;20496;-76
2023/09/13 04:52:10;;;;;;;18.00;6.70;;;;;;;11.28;100.00;93378.56;5070678;28;20090;-76
2023/09/13 04:54:37;;;;;;;17.65;6.50;;;;;;;11.33;100.00;93376.16;5070374;28;20484;-77
2023/09/13 04:57:04;;;;;;;20.73;5.90;;;;;;;11.36;100.00;93373.19;5072414;28;20489;-77
2023/09/13 04:59:42;;;;;;;12.98;5.65;;;;;;;11.38;100.00;93371.19;5070546;28;20052;-77
2023/09/13 05:02:11;;;;;;;17.67;6.28;;;;;;;11.39;100.00;93369.41;5070414;28;20080;-77
2023/09/13 05:04:37;;;;;;;16.88;6.35;;;;;;;11.53;100.00;93382.94;5071956;28;20127;-77
2023/09/13 05:07:05;;;;;;;15.05;6.78;;;;;;;11.55;100.00;93379.16;5088695;28;20048;-77
2023/09/13 05:09:33;;;;;;;16.75;6.28;;;;;;;11.61;100.00;93378.31;5089000;28;20443;-77
2023/09/13 05:12:00;;;;;;;19.95;6.40;;;;;;;11.69;100.00;93377.25;5087633;28;20040;-77
2023/09/13 05:14:27;;;;;;;15.85;7.15;;;;;;;11.65;100.00;93358.09;5072534;28;20059;-77
2023/09/13 05:16:54;;;;;;;20.20;8.02;;;;;;;11.80;100.00;93375.75;5069905;28;20090;-76
2023/09/13 05:19:21;;;;;;;18.08;8.32;;;;;;;11.87;100.00;93375.72;5071517;28;20498;-76
2023/09/13 05:21:48;;;;;;;17.42;8.88;;;;;;;11.93;100.00;93382.56;5072300;28;20106;-77
2023/09/13 05:24:14;;;;;;;17.08;8.93;;;;;;;12.01;100.00;93381.50;5074256;28;20387;-77
2023/09/13 05:26:42;;;;;;;11.52;5.97;;;;;;;12.00;100.00;93380.72;5070045;28;20086;-76
2023/09/13 05:29:09;;;;;;;9.70;5.45;;;;;;;11.91;100.00;93376.88;5070193;28;20048;-76
2023/09/13 05:31:36;;;;;;;9.40;5.93;;;;;;;11.93;100.00;93382.56;5068279;28;20053;-76
2023/09/13 05:34:02;;;;;;;9.75;5.57;;;;;;;11.95;100.00;93382.38;5071916;28;20048;-76
2023/09/13 05:36:29;;;;;;;11.57;6.68;;;;;;;11.69;100.00;93350.72;5071890;28;20908;-76
2023/09/13 05:38:56;;;;;;;15.15;6.60;;;;;;;12.00;100.00;93385.84;5069436;28;20049;-76
2023/09/13 05:41:24;;;;;;;13.05;7.15;;;;;;;12.06;100.00;93386.03;5069667;28;20045;-76
2023/09/13 05:43:52;;;;;;;11.30;7.00;;;;;;;11.96;100.00;93364.13;5073822;28;20102;-76
2023/09/13 05:46:19;;;;;;;15.45;8.00;;;;;;;12.19;100.00;93380.75;5069711;28;20052;-76
2023/09/13 05:48:45;;;;;;;16.83;7.57;;;;;;;12.22;100.00;93364.88;5069848;28;20054;-76
2023/09/13 05:51:12;;;;;;;15.02;7.22;;;;;;;12.46;100.00;93388.19;5068502;28;20094;-76
2023/09/13 05:53:39;;;;;;;14.23;7.93;;;;;;;12.53;100.00;93380.38;5069178;28;20543;-76
2023/09/13 05:56:05;;;;;;;17.40;8.10;;;;;;;12.66;100.00;93387.94;5069339;28;20048;-76
2023/09/13 05:58:32;;;;;;;17.67;7.00;;;;;;;12.80;100.00;93382.59;5069041;28;20060;-76
2023/09/13 06:01:00;;;;;;;15.43;7.10;;;;;;;12.95;100.00;93377.84;5073113;28;20513;-76
2023/09/13 06:03:30;;;;;;;12.93;7.60;;;;;;;12.93;100.00;93350.69;5072343;28;20048;-76
2023/09/13 06:05:57;;;;;;;19.77;8.10;;;;;;;13.23;100.00;93386.78;5069063;28;20048;-77
2023/09/13 06:08:24;;;;;;;21.23;8.45;;;;;;;13.41;100.00;93382.53;5069147;28;20045;-77
2023/09/13 06:10:50;;;;;;;20.35;7.55;;;;;;;13.57;99.97;93380.34;5069193;28;20094;-77
2023/09/13 06:13:17;;;;;;;15.50;7.50;;;;;;;13.67;100.00;93379.78;5070846;28;20056;-77
2023/09/13 06:15:44;;;;;;;18.88;7.35;;;;;;;13.78;99.18;93378.22;5087164;28;20606;-77
2023/09/13 06:18:12;;;;;;;21.52;8.05;;;;;;;13.99;97.14;93372.44;5087093;28;20052;-77
2023/09/13 06:20:38;;;;;;;13.32;6.93;;;;;;;14.11;96.30;93379.41;5076344;28;20105;-77
2023/09/13 06:23:05;;;;;;;22.75;7.80;;;;;;;14.24;95.22;93378.38;5068627;28;20044;-77
2023/09/13 06:25:32;;;;;;;18.00;8.65;;;;;;;14.37;95.42;93385.88;5068754;28;20567;-77
2023/09/13 06:27:58;;;;;;;17.92;9.00;;;;;;;14.57;95.20;93384.69;5070355;28;20044;-77
2023/09/13 06:30:27;;;;;;;16.35;8.55;;;;;;;14.78;93.21;93379.94;5068555;28;20049;-77
2023/09/13 06:32:54;;;;;;;18.45;8.60;;;;;;;14.99;91.46;93377.72;5080825;28;20456;-77
2023/09/13 06:35:22;;;;;;;14.70;8.55;;;;;;;15.19;91.62;93385.03;5076350;28;20127;-77
2023/09/13 06:37:49;;;;;;;18.20;7.55;;;;;;;15.42;90.60;93378.91;5087192;28;20394;-78
2023/09/13 06:40:16;;;;;;;16.20;6.85;;;;;;;15.72;88.95;93385.59;5084776;28;20101;-77
2023/09/13 06:42:43;;;;;;;15.60;6.85;;;;;;;15.93;86.38;93377.34;5067871;28;20049;-77
2023/09/13 06:45:10;;;;;;;14.07;6.38;;;;;;;16.07;84.74;93362.25;5068248;28;20048;-77
2023/09/13 06:47:37;;;;;;;21.45;7.70;;;;;;;16.46;83.66;93388.13;5068189;28;20093;-77
2023/09/13 06:50:04;;;;;;;14.88;5.82;;;;;;;16.72;81.72;93382.41;5070840;28;20125;-77
2023/09/13 06:52:32;;;;;;;15.45;5.68;;;;;;;16.95;78.93;93396.94;5068307;28;20052;-77
2023/09/13 06:54:58;;;;;;;12.63;5.78;;;;;;;16.98;77.40;93385.28;5067183;28;20306;-77
2023/09/13 06:57:26;;;;;;;9.77;4.78;;;;;;;17.25;75.94;93400.88;5065702;28;20106;-77
2023/09/13 06:59:53;;;;;;;11.57;5.28;;;;;;;17.38;77.41;93398.88;5067199;28;20049;-77
2023/09/13 07:02:20;;;;;;;14.52;5.88;;;;;;;17.62;75.84;93394.94;5067672;28;20678;-77
2023/09/13 07:04:46;;;;;;;13.65;4.78;;;;;;;17.90;74.90;93393.03;5072432;28;20052;-77
2023/09/13 07:07:13;;;;;;;9.55;3.97;;;;;;;18.18;70.39;93403.34;5070622;28;20052;-77
2023/09/13 07:09:45;;;;;;;7.60;3.33;;;;;;;18.45;68.98;93396.44;5085755;28;20059;-78
2023/09/13 07:12:11;;;;;;;10.55;3.70;;;;;;;18.72;69.33;93390.31;5077918;28;20040;-77
2023/09/13 07:14:38;;;;;;;7.45;4.03;;;;;;;18.99;68.00;93389.34;5084998;28;20501;-77
2023/09/13 07:17:05;;;;;;;8.82;4.13;;;;;;;19.16;68.40;93387.31;5084477;28;20036;-77
2023/09/13 07:19:32;;;;;;;7.47;3.85;;;;;;;19.42;67.22;93386.53;5079984;28;20102;-77
2023/09/13 07:21:59;;;;;;;9.95;4.10;;;;;;;19.73;65.27;93394.34;5075273;28;20048;-77
2023/09/13 07:24:25;;;;;;;13.70;4.90;;;;;;;19.99;65.87;93394.34;5068543;28;20093;-77
2023/09/13 07:26:55;;;;;;;7.97;3.75;;;;;;;20.14;64.61;93381.28;5086391;28;20044;-77
2023/09/13 07:29:21;;;;;;;15.63;4.40;;;;;;;20.36;65.21;93389.84;5083179;28;20555;-77
2023/09/13 07:31:48;;;;;;;12.95;5.45;;;;;;;20.44;62.80;93394.47;5067800;28;20048;-77
2023/09/13 07:34:16;;;;;;;7.72;3.70;;;;;;;20.76;62.30;93390.69;5067788;28;20052;-77
2023/09/13 07:36:43;;;;;;;10.23;3.80;;;;;;;21.12;64.14;93381.13;5069074;28;20399;-77
2023/09/13 07:39:10;;;;;;;14.98;3.95;;;;;;;21.41;62.57;93383.00;5067850;28;20052;-77
2023/09/13 07:41:37;;;;;;;15.05;4.72;;;;;;;21.62;58.27;93391.47;5067452;28;20783;-77
2023/09/13 07:44:05;;;;;;;11.10;3.60;;;;;;;21.84;59.19;93380.59;5071037;28;20132;-77
2023/09/13 07:46:32;;;;;;;6.38;3.10;;;;;;;22.03;59.05;93382.50;5070263;28;20117;-77
2023/09/13 07:48:58;;;;;;;12.10;4.72;;;;;;;22.23;57.71;93383.34;5071087;28;20044;-77
2023/09/13 07:51:25;;;;;;;7.82;3.35;;;;;;;22.45;57.15;93387.31;5067047;28;20097;-77
2023/09/13 07:53:53;;;;;;;10.13;3.67;;;;;;;22.72;58.33;93380.72;5067618;28;20448;-77
2023/09/13 07:56:20;;;;;;;6.82;2.85;;;;;;;22.99;56.52;93387.19;5067753;28;20051;-77
2023/09/13 07:58:47;;;;;;;6.80;2.95;;;;;;;23.15;55.01;93380.66;5078373;28;20052;-78
2023/09/13 08:01:15;;;;;;;12.13;4.30;;;;;;;23.21;56.48;93389.22;5067158;28;20048;-78
2023/09/13 08:03:42;;;;;;;10.00;4.30;;;;;;;23.38;57.33;93387.97;5067594;28;20102;-77
2023/09/13 08:06:08;;;;;;;11.20;5.32;;;;;;;23.41;55.16;93364.56;5068994;28;20094;-78
2023/09/13 08:08:35;;;;;;;17.17;4.53;;;;;;;23.74;54.02;93384.75;5067026;28;20178;-78
2023/09/13 08:11:03;;;;;;;12.02;4.35;;;;;;;23.92;53.21;93383.16;5066810;28;20045;-79
2023/09/13 08:13:30;;;;;;;19.65;4.63;;;;;;;24.01;53.70;93384.03;5070662;28;20522;-78
2023/09/13 08:15:57;;;;;;;12.50;4.35;;;;;;;24.13;54.70;93388.06;5067192;28;20106;-81
2023/09/13 08:18:25;;;;;;;14.32;4.97;;;;;;;24.05;54.03;93378.19;5070897;28;20449;-78
2023/09/13 08:20:51;;;;;;;18.70;3.95;;;;;;;24.09;53.79;93393.13;5066313;28;20494;-78
2023/09/13 08:23:18;;;;;;;18.05;4.60;;;;;;;24.28;55.02;93387.78;5071016;28;20045;-77
2023/09/13 08:25:45;;;;;;;12.88;4.30;;;;;;;24.49;52.57;93391.88;5072926;28;20048;-78
2023/09/13 08:28:12;;;;;;;17.05;4.50;;;;;;;24.82;54.49;93381.25;5079357;28;20045;-78
2023/09/13 08:30:39;;;;;;;16.17;3.70;;;;;;;25.06;51.27;93385.47;5072099;28;20056;-78
2023/09/13 08:33:06;;;;;;;16.92;3.90;;;;;;;25.21;51.33;93384.34;5070947;28;20098;-79
2023/09/13 08:35:34;;;;;;;19.05;5.35;;;;;;;25.37;49.88;93378.75;5071050;28;20060;-80
2023/09/13 08:38:01;;;;;;;10.13;3.30;;;;;;;25.34;49.76;93383.53;5071285;28;20101;-79
2023/09/13 08:40:28;;;;;;;12.40;3.20;;;;;;;25.35;49.22;93386.94;5075223;28;20524;-79
2023/09/13 08:42:56;;;;;;;9.50;4.68;;;;;;;25.54;49.81;93373.63;5070913;28;20041;-78
2023/09/13 08:45:24;;;;;;;19.40;5.38;;;;;;;25.64;48.56;93364.72;5071190;28;20436;-80
2023/09/13 08:47:55;;;;;;;11.00;4.13;;;;;;;25.87;48.46;93372.59;5073215;28;20207;-79
2023/09/13 08:50:26;;;;;;;10.90;3.55;;;;;;;26.25;49.11;93380.03;5070862;28;20098;-78
2023/09/13 08:52:55;;;;;;;18.65;4.90;;;;;;;26.47;48.33;93369.75;5076741;28;20059;-79
2023/09/13 08:55:23;;;;;;;8.50;3.38;;;;;;;26.83;46.84;93376.63;5069999;28;20091;-79
2023/09/13 08:57:50;;;;;;;9.93;3.50;;;;;;;27.14;46.83;93370.47;5070135;28;20490;-79
2023/09/13 09:00:18;;;;;;;6.05;1.80;;;;;;;27.25;43.10;93367.53;5073485;28;20047;-78
2023/09/13 09:02:47;;;;;;;4.72;2.20;;;;;;;27.57;41.36;93374.16;5077901;28;20076;-78
2023/09/13 09:05:16;;;;;;;7.82;2.05;;;;;;;27.85;43.06;93370.41;5069559;28;20045;-78
2023/09/13 09:07:46;;;;;;;3.80;1.73;;;;;;;28.02;38.93;93377.50;5070382;28;20086;-78
2023/09/13 09:10:15;;;;;;;4.15;1.60;;;;;;;28.25;40.67;93377.28;5070176;28;20056;-79
2023/09/13 09:12:45;;;;;;;5.65;2.50;;;;;;;28.37;41.36;93369.44;5070189;28;20049;-78
2023/09/13 09:15:14;;;;;;;5.18;2.13;;;;;;;28.47;39.94;93372.84;5070418;28;20052;-79
2023/09/13 09:17:42;;;;;;;5.75;1.95;;;;;;;28.65;39.45;93371.63;5069660;28;20048;-79
2023/09/13 09:20:09;;;;;;;9.73;2.55;;;;;;;28.75;38.48;93375.78;5070337;28;20650;-79
2023/09/13 09:22:38;;;;;;;5.60;1.70;;;;;;;28.58;35.98;93366.09;5069864;28;20045;-78
2023/09/13 09:25:10;;;;;;;3.30;1.80;;;;;;;28.19;36.19;93381.94;5072183;28;20044;-78
2023/09/13 09:27:39;;;;;;;5.00;2.08;;;;;;;28.30;36.69;93365.75;5072640;28;20086;-78
2023/09/13 09:30:07;;;;;;;3.72;1.90;;;;;;;28.63;39.15;93367.75;5070641;28;20044;-78
2023/09/13 09:32:36;;;;;;;7.38;2.03;;;;;;;28.85;37.87;93371.22;5070013;28;20492;-78
2023/09/13 09:35:05;;;;;;;6.78;2.05;;;;;;;29.03;36.79;93361.31;5069664;28;20062;-77
2023/09/13 09:37:33;;;;;;;6.78;1.85;;;;;;;29.27;37.64;93357.22;5073016;28;20048;-78
2023/09/13 09:40:01;;;;;;;5.55;2.00;;;;;;;29.49;37.19;93366.72;5069926;28;20102;-79
2023/09/13 09:42:29;;;;;;;7.10;1.77;;;;;;;29.45;37.06;93365.78;5072060;28;20052;-77
2023/09/13 09:44:57;;;;;;;4.32;1.88;;;;;;;29.63;36.52;93363.78;5069903;28;20049;-77
2023/09/13 09:47:23;;;;;;;7.85;1.95;;;;;;;29.62;36.35;93358.81;5068951;28;20044;-77
2023/09/13 09:49:50;;;;;;;3.65;2.15;;;;;;;29.82;34.41;93355.34;5074411;28;20070;-78
2023/09/13 09:52:17;;;;;;;6.63;2.15;;;;;;;30.06;35.97;93353.03;5069263;28;20098;-78
2023/09/13 09:54:48;;;;;;;6.80;2.35;;;;;;;29.97;35.43;93316.84;5069520;28;20098;-79
2023/09/13 09:57:21;;;;;;;7.00;1.55;;;;;;;30.25;33.67;93358.59;5073029;28;20134;-77
2023/09/13 09:59:49;;;;;;;7.30;1.88;;;;;;;30.46;33.93;93354.28;5070696;28;20075;-78
2023/09/13 10:02:17;;;;;;;5.35;2.10;;;;;;;30.35;33.67;93338.06;5080642;28;20044;-77
2023/09/13 10:04:50;;;;;;;6.80;2.10;;;;;;;30.59;34.26;93349.75;5075028;28;20545;-78
2023/09/13 10:07:17;;;;;;;11.82;2.80;;;;;;;30.80;34.23;93339.81;5073631;28;20160;-79
2023/09/13 10:09:46;;;;;;;6.82;1.88;;;;;;;30.92;34.31;93340.88;5068969;28;20561;-79
2023/09/13 10:12:14;;;;;;;3.72;1.77;;;;;;;31.04;33.26;93340.06;5074006;28;20049;-78
2023/09/13 10:14:42;;;;;;;5.43;2.17;;;;;;;31.06;32.78;93346.59;5086700;28;20052;-78
2023/09/13 10:17:10;;;;;;;5.55;1.88;;;;;;;30.35;31.40;93312.34;5087270;28;20921;-78
2023/09/13 10:19:38;;;;;;;2.50;1.40;;;;;;;30.65;33.47;93330.63;5078187;28;20135;-78
2023/09/13 10:22:05;;;;;;;3.63;1.88;;;;;;;30.66;32.92;93315.50;5068931;28;20047;-77
2023/09/13 10:24:36;;;;;;;5.13;1.90;;;;;;;30.66;31.35;93331.41;5068920;28;20465;-78
2023/09/13 10:27:06;;;;;;;5.63;2.22;;;;;;;30.45;31.88;93323.59;5068787;28;20123;-77
2023/09/13 10:29:40;;;;;;;5.22;2.10;;;;;;;30.61;30.94;93329.78;5071481;28;20464;-78
2023/09/13 10:32:10;;;;;;;6.93;2.33;;;;;;;30.95;32.91;93326.19;5074788;28;20132;-78
2023/09/13 10:34:47;;;;;;;7.47;2.35;;;;;;;31.11;31.60;93326.22;5071416;28;20056;-77
2023/09/13 10:37:25;;;;;;;10.05;2.53;;;;;;;31.35;31.65;93316.66;5069118;28;20053;-78
2023/09/13 10:39:56;;;;;;;4.88;2.03;;;;;;;31.48;31.75;93322.66;5076610;28;20052;-78
2023/09/13 10:42:25;;;;;;;3.58;1.75;;;;;;;31.57;31.47;93308.13;5070211;28;20052;-78
2023/09/13 10:44:53;;;;;;;8.77;2.47;;;;;;;31.76;31.22;93321.84;5067682;28;20048;-78
2023/09/13 10:47:20;;;;;;;18.65;2.88;;;;;;;31.88;30.72;93313.81;5077348;28;20049;-77
2023/09/13 10:49:49;;;;;;;4.90;1.77;;;;;;;32.03;31.25;93311.53;5078270;28;20101;-78
2023/09/13 10:52:17;;;;;;;6.57;2.50;;;;;;;31.88;30.71;93315.72;5067723;28;20040;-77
2023/09/13 10:54:46;;;;;;;9.65;2.70;;;;;;;31.75;30.70;93291.09;5070321;28;20094;-79
2023/09/13 10:57:16;;;;;;;7.35;2.15;;;;;;;32.06;31.11;93310.84;5075831;28;20080;-79
2023/09/13 10:59:44;;;;;;;5.13;1.95;;;;;;;32.22;29.44;93311.56;5068283;28;20048;-78
2023/09/13 11:02:11;;;;;;;7.32;2.65;;;;;;;32.29;30.17;93297.69;5068019;28;20049;-79
2023/09/13 11:04:39;;;;;;;6.25;2.40;;;;;;;32.50;29.24;93308.03;5068844;28;20045;-78
2023/09/13 11:07:07;;;;;;;7.00;2.38;;;;;;;32.51;30.12;93303.50;5077050;28;20048;-80
2023/09/13 11:09:34;;;;;;;10.48;2.03;;;;;;;32.62;29.62;93298.44;5086428;28;20051;-79
2023/09/13 11:12:03;;;;;;;4.13;2.00;;;;;;;32.71;27.83;93298.22;5073699;28;20098;-79
2023/09/13 11:14:31;;;;;;;6.75;2.47;;;;;;;32.51;28.15;93291.00;5068070;28;20129;-79
2023/09/13 11:17:10;;;;;;;6.13;2.17;;;;;;;32.59;28.24;93273.31;5069088;28;20048;-78
2023/09/13 11:19:36;;;;;;;7.00;2.35;;;;;;;32.40;29.03;93279.31;5067134;28;20533;-79
2023/09/13 11:22:05;;;;;;;5.13;2.30;;;;;;;32.42;27.74;93273.66;5067555;28;20048;-79
2023/09/13 11:24:37;;;;;;;5.60;2.17;;;;;;;32.39;28.87;93275.88;5069647;28;20050;-80
2023/09/13 11:27:12;;;;;;;4.75;2.10;;;;;;;32.46;28.11;93271.88;5067025;28;20057;-80
2023/09/13 11:29:44;;;;;;;8.05;2.95;;;;;;;31.49;27.67;93274.56;5071721;28;20097;-80
2023/09/13 11:32:17;;;;;;;4.75;1.88;;;;;;;31.00;28.88;93254.34;5067460;28;20048;-79
2023/09/13 11:34:45;;;;;;;5.90;2.30;;;;;;;31.18;28.33;93265.41;5067328;28;20127;-80